Time;durP1;ratioP1;P1;durP2;ratioP2;P2;SDS_P1;SDS_P2;PMS_P1;PMS_P2;Temp;Humidity;BMP_temperature;BMP_pressure;BME280_temperature;BME280_humidity;BME280_pressure;Samples;Min_cycle;Max_cycle;Signal;HPM_P1;HPM_P2
2020/12/03 00:00:40;;;;;;;58.63;27.07;;;;;;;-0.63;79.27;98473.75;4881603;29;20105;-62
2020/12/03 00:03:29;;;;;;;53.73;26.10;;;;;;;-0.58;79.31;98470.53;4881667;29;20037;-62
2020/12/03 00:05:59;;;;;;;57.10;25.70;;;;;;;-0.66;79.48;98463.63;4891107;29;20039;-62
2020/12/03 00:08:29;;;;;;;47.30;25.17;;;;;;;-0.67;79.63;98462.78;4939888;29;20079;-62
2020/12/03 00:10:54;;;;;;;52.97;25.87;;;;;;;-0.74;79.67;98458.44;4952624;29;20028;-62
2020/12/03 00:13:25;;;;;;;55.67;27.57;;;;;;;-0.72;80.35;98466.03;4939534;29;20079;-62
2020/12/03 00:15:56;;;;;;;53.23;25.83;;;;;;;-0.72;80.26;98461.81;4939499;29;20040;-62
2020/12/03 00:18:26;;;;;;;58.57;27.13;;;;;;;-0.70;80.45;98456.84;4940027;29;20035;-63
2020/12/03 00:20:52;;;;;;;62.00;27.93;;;;;;;-0.74;80.61;98467.66;4939657;29;20028;-63
2020/12/03 00:23:17;;;;;;;54.40;28.33;;;;;;;-0.70;80.42;98459.34;4939771;29;20468;-62
2020/12/03 00:25:44;;;;;;;57.37;27.53;;;;;;;-0.62;80.02;98458.69;4938722;29;20028;-62
2020/12/03 00:28:09;;;;;;;53.87;26.57;;;;;;;-0.61;80.13;98462.06;4940068;29;20071;-63
2020/12/03 00:30:35;;;;;;;56.97;27.03;;;;;;;-0.75;81.01;98458.38;4939724;29;20036;-62
2020/12/03 00:33:00;;;;;;;57.07;29.53;;;;;;;-0.82;80.95;98454.91;4938702;29;20036;-63
2020/12/03 00:35:27;;;;;;;57.23;27.53;;;;;;;-0.82;81.28;98454.91;4938063;29;20052;-63
2020/12/03 00:37:53;;;;;;;56.57;26.87;;;;;;;-0.62;80.45;98461.22;4936600;29;20401;-63
2020/12/03 00:40:20;;;;;;;56.37;27.70;;;;;;;-0.71;80.55;98452.59;4937209;29;20028;-63
2020/12/03 00:42:46;;;;;;;61.27;27.60;;;;;;;-0.60;80.34;98459.59;4937706;29;20042;-63
2020/12/03 00:45:14;;;;;;;60.97;28.63;;;;;;;-0.61;80.58;98457.91;4935336;29;20015;-63
2020/12/03 00:47:41;;;;;;;50.70;26.43;;;;;;;-0.60;80.53;98454.56;4959841;28;20058;-63
2020/12/03 00:50:12;;;;;;;60.23;27.53;;;;;;;-0.61;80.40;98452.00;4974891;28;20644;-63
2020/12/03 00:52:38;;;;;;;56.73;28.60;;;;;;;-0.75;80.96;98448.31;4975430;28;20503;-63
2020/12/03 00:55:06;;;;;;;58.60;27.53;;;;;;;-0.68;80.83;98447.66;4975717;28;20114;-63
2020/12/03 00:57:32;;;;;;;62.60;32.67;;;;;;;-0.70;80.71;98444.25;4976177;28;20114;-62
2020/12/03 00:59:57;;;;;;;57.50;28.70;;;;;;;-0.71;81.01;98435.84;4975933;28;20034;-64
2020/12/03 01:02:23;;;;;;;54.17;27.57;;;;;;;-0.67;80.47;98435.09;4975853;28;20023;-62
2020/12/03 01:04:48;;;;;;;58.37;29.17;;;;;;;-0.68;80.75;98442.63;4975302;28;20023;-62
2020/12/03 01:07:14;;;;;;;57.30;26.93;;;;;;;-0.57;80.46;98433.63;4975916;28;20030;-62
2020/12/03 01:09:41;;;;;;;62.67;29.10;;;;;;;-0.63;80.59;98438.53;4975607;28;20037;-62
2020/12/03 01:12:07;;;;;;;56.97;27.60;;;;;;;-0.76;81.16;98434.03;4977127;28;20033;-62
2020/12/03 01:14:34;;;;;;;58.33;29.60;;;;;;;-0.69;81.66;98431.72;4975401;28;20019;-64
2020/12/03 01:17:09;;;;;;;61.17;30.37;;;;;;;-0.63;81.65;98426.78;4987669;28;20023;-64
2020/12/03 01:19:35;;;;;;;61.83;30.02;;;;;;;-0.64;82.01;98429.28;4997243;28;20065;-62
2020/12/03 01:22:00;;;;;;;63.03;29.47;;;;;;;-0.77;82.27;98424.81;4987190;28;20455;-63
2020/12/03 01:24:26;;;;;;;62.70;30.10;;;;;;;-0.74;82.52;98425.72;4959897;28;20065;-63
2020/12/03 01:26:51;;;;;;;58.87;28.83;;;;;;;-0.72;82.94;98430.78;4976300;28;20440;-63
2020/12/03 01:29:18;;;;;;;63.23;32.00;;;;;;;-0.73;83.04;98421.53;4977156;28;20041;-63
2020/12/03 01:31:44;;;;;;;68.03;32.17;;;;;;;-0.75;83.27;98431.56;4977002;28;20019;-63
2020/12/03 01:34:09;;;;;;;64.17;31.90;;;;;;;-0.83;83.62;98433.06;4976233;28;20349;-64
2020/12/03 01:36:35;;;;;;;63.80;31.60;;;;;;;-0.79;83.69;98429.78;4976381;28;20030;-64
2020/12/03 01:39:00;;;;;;;63.83;31.00;;;;;;;-0.77;83.37;98419.78;4959060;28;20154;-63
2020/12/03 01:41:27;;;;;;;70.10;32.37;;;;;;;-0.75;83.52;98418.13;4976370;28;20038;-64
2020/12/03 01:43:52;;;;;;;65.30;31.07;;;;;;;-0.71;83.45;98414.84;4976544;28;20033;-63
2020/12/03 01:46:18;;;;;;;67.40;32.27;;;;;;;-0.67;83.50;98417.47;4975024;28;20022;-63
2020/12/03 01:48:43;;;;;;;63.70;30.57;;;;;;;-0.68;83.29;98407.41;4976760;28;20026;-63
2020/12/03 01:51:22;;;;;;;67.93;31.73;;;;;;;-0.70;83.55;98407.34;4974701;28;20029;-63
2020/12/03 01:53:49;;;;;;;67.73;30.87;;;;;;;-0.75;83.87;98400.50;4976635;28;20166;-63
2020/12/03 01:56:28;;;;;;;69.93;31.63;;;;;;;-0.73;83.81;98396.38;4975027;28;20359;-63
2020/12/03 01:58:55;;;;;;;70.33;32.63;;;;;;;-0.71;83.85;98398.09;4975395;28;20027;-62
2020/12/03 02:01:20;;;;;;;70.10;31.97;;;;;;;-0.81;83.79;98390.31;4974667;28;20448;-63
2020/12/03 02:03:48;;;;;;;64.37;31.43;;;;;;;-0.73;83.74;98377.09;4976182;28;20198;-63
2020/12/03 02:06:28;;;;;;;62.67;31.87;;;;;;;-0.77;83.44;98374.47;4975873;28;20115;-63
2020/12/03 02:08:54;;;;;;;68.80;32.33;;;;;;;-0.80;84.10;98372.72;4975243;28;20444;-63
2020/12/03 02:11:21;;;;;;;60.13;29.77;;;;;;;-0.79;83.72;98373.56;4975788;28;20097;-63
2020/12/03 02:13:59;;;;;;;69.30;34.47;;;;;;;-0.81;83.90;98370.19;4974470;28;20023;-63
2020/12/03 02:16:28;;;;;;;73.03;32.33;;;;;;;-0.83;84.31;98359.22;4975001;28;20045;-63
2020/12/03 02:18:53;;;;;;;68.87;31.57;;;;;;;-0.69;84.15;98357.88;4974396;28;20396;-63
2020/12/03 02:21:19;;;;;;;59.50;30.40;;;;;;;-0.65;83.38;98365.50;4975243;28;20092;-63
2020/12/03 02:23:45;;;;;;;60.03;31.23;;;;;;;-0.69;83.05;98352.84;4974337;28;20031;-63
2020/12/03 02:26:11;;;;;;;62.80;30.40;;;;;;;-0.70;83.54;98351.97;4975238;28;20023;-63
2020/12/03 02:28:37;;;;;;;65.43;33.90;;;;;;;-0.74;83.47;98355.25;4974378;28;20118;-63
2020/12/03 02:31:03;;;;;;;60.27;30.97;;;;;;;-0.77;83.58;98346.78;4974568;28;20027;-63
2020/12/03 02:33:29;;;;;;;57.70;28.83;;;;;;;-0.77;82.84;98337.59;4974140;28;20022;-63
2020/12/03 02:35:54;;;;;;;63.83;31.23;;;;;;;-0.78;83.27;98342.56;4974326;28;20070;-62
2020/12/03 02:38:19;;;;;;;60.10;32.03;;;;;;;-0.81;82.60;98345.88;4974879;28;20022;-63
2020/12/03 02:40:45;;;;;;;58.43;31.80;;;;;;;-0.85;83.17;98339.09;4974281;28;20042;-63
2020/12/03 02:43:10;;;;;;;56.17;31.37;;;;;;;-0.82;82.95;98328.22;4974837;28;20031;-63
2020/12/03 02:45:36;;;;;;;68.63;34.70;;;;;;;-0.78;83.25;98330.00;4973071;28;20026;-63
2020/12/03 02:48:01;;;;;;;61.40;30.60;;;;;;;-0.86;83.31;98328.97;4974043;28;20472;-62
2020/12/03 02:50:27;;;;;;;56.67;30.43;;;;;;;-0.81;83.27;98323.25;4973879;28;20023;-64
2020/12/03 02:52:52;;;;;;;55.70;29.67;;;;;;;-0.82;83.08;98330.75;4973718;28;20026;-62
2020/12/03 02:55:17;;;;;;;61.77;31.80;;;;;;;-0.96;83.15;98320.38;4979370;28;20148;-63
2020/12/03 02:57:43;;;;;;;60.87;31.53;;;;;;;-0.91;83.54;98321.34;4993799;28;20026;-63
2020/12/03 03:00:08;;;;;;;58.20;30.87;;;;;;;-0.89;82.75;98322.19;4975393;28;20022;-63
2020/12/03 03:02:34;;;;;;;57.70;29.87;;;;;;;-0.85;82.87;98329.03;4994278;28;20030;-63
2020/12/03 03:04:59;;;;;;;57.63;30.03;;;;;;;-0.82;82.94;98329.09;4991430;28;20025;-63
2020/12/03 03:07:24;;;;;;;57.10;28.10;;;;;;;-0.86;82.61;98322.28;4975573;28;20081;-62
2020/12/03 03:09:50;;;;;;;54.67;29.43;;;;;;;-0.89;82.77;98321.38;4973960;28;20068;-62
2020/12/03 03:12:15;;;;;;;62.33;32.17;;;;;;;-0.92;83.17;98328.03;4974647;28;20031;-62
2020/12/03 03:14:40;;;;;;;62.67;31.43;;;;;;;-0.90;83.27;98334.78;4973686;28;20027;-62
2020/12/03 03:17:06;;;;;;;56.60;31.00;;;;;;;-0.88;82.86;98333.13;4973296;28;20474;-62
2020/12/03 03:19:32;;;;;;;53.70;30.50;;;;;;;-0.84;82.71;98329.84;4973971;28;20059;-62
2020/12/03 03:21:57;;;;;;;55.40;29.60;;;;;;;-0.82;83.20;98328.22;4974188;28;20436;-62
2020/12/03 03:24:23;;;;;;;51.83;28.80;;;;;;;-0.88;83.17;98323.06;4957147;28;20022;-62
2020/12/03 03:26:48;;;;;;;59.17;31.90;;;;;;;-0.86;83.09;98318.91;4973903;28;20341;-61
2020/12/03 03:29:14;;;;;;;61.27;32.43;;;;;;;-0.88;83.40;98318.03;4973432;28;20035;-62
2020/12/03 03:31:40;;;;;;;57.50;30.43;;;;;;;-0.88;83.61;98310.47;4973717;28;20054;-62
2020/12/03 03:34:06;;;;;;;58.37;30.87;;;;;;;-0.83;83.67;98322.34;4974815;28;20102;-62
2020/12/03 03:36:32;;;;;;;69.90;32.40;;;;;;;-0.88;83.97;98320.53;4982340;28;20034;-62
2020/12/03 03:38:58;;;;;;;54.10;29.53;;;;;;;-0.81;83.12;98308.16;4974791;28;20031;-62
2020/12/03 03:41:24;;;;;;;61.83;32.60;;;;;;;-0.90;83.20;98310.47;4974471;28;20031;-62
2020/12/03 03:43:50;;;;;;;57.50;29.33;;;;;;;-0.85;82.45;98290.44;4974381;28;20093;-62
2020/12/03 03:46:16;;;;;;;55.93;32.87;;;;;;;-0.82;83.01;98286.31;4973479;28;20109;-62
2020/12/03 03:48:41;;;;;;;59.20;30.20;;;;;;;-0.93;82.83;98290.25;4974250;28;20424;-62
2020/12/03 03:51:07;;;;;;;53.53;28.87;;;;;;;-0.84;82.51;98271.97;4972060;28;20046;-62
2020/12/03 03:53:33;;;;;;;53.37;30.23;;;;;;;-0.88;82.40;98265.19;4955267;29;20073;-64
2020/12/03 03:55:59;;;;;;;54.57;28.37;;;;;;;-0.96;83.01;98262.53;4953826;29;20027;-63
2020/12/03 03:58:24;;;;;;;55.07;28.70;;;;;;;-0.93;82.94;98250.00;4972586;28;20414;-62
2020/12/03 04:00:50;;;;;;;52.13;29.60;;;;;;;-0.97;82.92;98253.28;4973101;28;20030;-63
2020/12/03 04:03:19;;;;;;;56.93;30.97;;;;;;;-0.95;82.80;98247.47;4973320;28;20031;-63
2020/12/03 04:05:47;;;;;;;53.83;30.00;;;;;;;-0.97;82.89;98238.19;4973915;28;20042;-63
2020/12/03 04:08:14;;;;;;;58.13;31.87;;;;;;;-1.01;83.04;98234.75;4973648;28;20031;-63
2020/12/03 04:10:42;;;;;;;53.43;28.57;;;;;;;-0.96;83.47;98230.69;4977365;28;20031;-63
2020/12/03 04:13:07;;;;;;;56.23;28.53;;;;;;;-0.97;83.35;98228.13;4976009;28;20096;-63
2020/12/03 04:15:32;;;;;;;51.10;28.80;;;;;;;-0.99;82.59;98229.78;4976004;28;20031;-64
2020/12/03 04:17:58;;;;;;;50.20;27.07;;;;;;;-0.95;82.18;98229.00;4974459;28;20026;-63
2020/12/03 04:20:23;;;;;;;51.53;27.00;;;;;;;-0.99;82.33;98227.25;4974566;28;20114;-63
2020/12/03 04:22:49;;;;;;;47.47;28.30;;;;;;;-0.96;82.49;98229.81;4976454;28;20041;-64
2020/12/03 04:25:15;;;;;;;52.27;28.50;;;;;;;-1.00;82.81;98223.88;4976413;28;20041;-62
2020/12/03 04:27:40;;;;;;;52.80;28.83;;;;;;;-1.04;82.84;98222.13;4976618;28;20043;-63
2020/12/03 04:30:08;;;;;;;50.53;25.63;;;;;;;-1.01;82.17;98226.38;4976288;28;20045;-63
2020/12/03 04:32:33;;;;;;;50.40;30.90;;;;;;;-1.05;82.36;98224.59;4976548;28;20470;-63
2020/12/03 04:34:59;;;;;;;48.63;27.23;;;;;;;-0.99;82.44;98230.63;4976156;28;20045;-63
2020/12/03 04:37:24;;;;;;;50.40;27.13;;;;;;;-0.97;82.72;98228.97;4976224;28;20073;-63
2020/12/03 04:39:50;;;;;;;51.03;27.40;;;;;;;-0.96;82.71;98229.81;4976234;28;20026;-63
2020/12/03 04:42:24;;;;;;;47.47;27.47;;;;;;;-0.87;82.78;98231.66;4975851;28;20459;-63
2020/12/03 04:44:54;;;;;;;54.03;28.23;;;;;;;-0.89;82.81;98230.81;4976882;28;20019;-63
2020/12/03 04:47:40;;;;;;;48.50;26.47;;;;;;;-0.92;83.10;98232.44;4976150;28;20074;-63
2020/12/03 04:50:34;;;;;;;46.40;28.53;;;;;;;-0.84;83.03;98252.69;4959135;28;20027;-63
2020/12/03 04:53:36;;;;;;;54.10;28.93;;;;;;;-0.91;83.46;98255.94;4976179;28;20031;-63
2020/12/03 04:56:09;;;;;;;51.13;26.10;;;;;;;-1.02;83.29;98268.28;4976761;28;20042;-63
2020/12/03 04:58:46;;;;;;;51.67;28.57;;;;;;;-1.10;83.81;98271.44;4975653;28;20133;-64
2020/12/03 05:01:27;;;;;;;52.60;27.60;;;;;;;-1.06;83.96;98278.28;4958949;28;20084;-63
2020/12/03 05:04:03;;;;;;;56.37;30.10;;;;;;;-1.04;84.27;98274.09;4990003;28;20040;-64
2020/12/03 05:06:40;;;;;;;50.83;26.83;;;;;;;-1.04;84.01;98267.41;4995762;28;20092;-63
2020/12/03 05:09:18;;;;;;;54.80;29.07;;;;;;;-1.03;84.04;98265.75;4978675;28;20023;-64
2020/12/03 05:11:50;;;;;;;53.37;29.07;;;;;;;-1.04;84.23;98262.38;4975052;28;20495;-62
2020/12/03 05:14:40;;;;;;;47.63;27.43;;;;;;;-1.02;84.10;98252.38;4974976;28;20041;-62
2020/12/03 05:17:28;;;;;;;48.60;28.00;;;;;;;-1.03;84.10;98261.56;4944947;28;20629;-62
2020/12/03 05:20:21;;;;;;;51.50;27.80;;;;;;;-1.04;84.16;98257.34;4967574;28;20101;-62
2020/12/03 05:22:55;;;;;;;53.63;29.10;;;;;;;-1.05;84.48;98253.13;4973121;28;20033;-62
2020/12/03 05:25:22;;;;;;;47.88;26.10;;;;;;;-1.04;84.44;98254.84;4974925;28;20037;-62
2020/12/03 05:27:51;;;;;;;50.87;28.83;;;;;;;-1.01;84.38;98257.41;4955515;28;20122;-63
2020/12/03 05:30:16;;;;;;;50.80;28.80;;;;;;;-1.05;84.57;98250.63;4973949;28;20026;-62
2020/12/03 05:32:42;;;;;;;56.63;29.00;;;;;;;-0.98;84.50;98247.38;4973520;28;20093;-63
2020/12/03 05:35:09;;;;;;;53.40;29.80;;;;;;;-0.94;84.60;98241.63;4971308;28;20034;-63
2020/12/03 05:37:38;;;;;;;49.47;27.40;;;;;;;-0.97;84.81;98239.03;4973912;28;20023;-62
2020/12/03 05:40:05;;;;;;;50.53;28.03;;;;;;;-0.98;84.45;98236.50;4973897;28;20041;-62
2020/12/03 05:42:36;;;;;;;53.43;29.23;;;;;;;-1.00;84.45;98231.44;4975463;28;20027;-63
2020/12/03 05:45:10;;;;;;;46.83;27.70;;;;;;;-0.99;84.75;98239.84;4973661;28;20081;-64
2020/12/03 05:47:41;;;;;;;48.73;27.60;;;;;;;-0.96;84.76;98239.88;4974550;28;20483;-62
2020/12/03 05:50:29;;;;;;;50.83;28.13;;;;;;;-0.95;84.98;98232.38;4974136;28;20035;-63
2020/12/03 05:52:57;;;;;;;47.07;27.97;;;;;;;-0.93;84.83;98247.47;4971584;28;20067;-62
2020/12/03 05:55:27;;;;;;;54.57;29.60;;;;;;;-0.99;84.86;98235.66;4973365;28;20019;-62
2020/12/03 05:57:53;;;;;;;54.67;30.10;;;;;;;-0.99;84.72;98234.81;4974256;28;20036;-62
2020/12/03 06:00:26;;;;;;;55.13;30.33;;;;;;;-0.87;84.54;98231.66;4953030;28;20031;-62
2020/12/03 06:03:29;;;;;;;51.70;29.13;;;;;;;-0.90;84.30;98245.06;4971090;28;20089;-63
2020/12/03 06:06:01;;;;;;;44.07;26.07;;;;;;;-0.94;84.37;98238.25;4973304;28;20045;-63
2020/12/03 06:08:42;;;;;;;47.93;27.53;;;;;;;-0.93;84.09;98240.78;4974348;28;20027;-62
2020/12/03 06:11:19;;;;;;;52.00;29.27;;;;;;;-0.94;84.26;98233.22;4972024;28;20341;-64
2020/12/03 06:14:21;;;;;;;52.10;27.93;;;;;;;-0.92;84.41;98247.53;4977082;28;20026;-63
2020/12/03 06:17:22;;;;;;;50.47;29.17;;;;;;;-0.93;84.64;98250.84;4975717;28;20038;-62
2020/12/03 06:20:09;;;;;;;52.60;30.30;;;;;;;-0.87;84.43;98254.31;4978242;28;20117;-63
2020/12/03 06:22:53;;;;;;;49.10;29.57;;;;;;;-0.90;84.71;98250.09;4978641;28;20018;-63
2020/12/03 06:25:21;;;;;;;50.70;30.10;;;;;;;-0.86;84.62;98256.03;4978149;28;20029;-63
2020/12/03 06:28:05;;;;;;;49.63;26.00;;;;;;;-0.91;84.75;98250.91;4978398;28;20037;-62
2020/12/03 06:30:37;;;;;;;48.30;27.23;;;;;;;-0.85;84.67;98263.59;4980010;28;20066;-65
2020/12/03 06:33:14;;;;;;;47.60;27.10;;;;;;;-0.88;84.42;98272.75;4971937;28;20027;-64
2020/12/03 06:35:49;;;;;;;50.33;28.00;;;;;;;-1.01;84.43;98259.91;4972944;28;20031;-65
2020/12/03 06:38:27;;;;;;;48.28;28.65;;;;;;;-0.94;84.58;98269.31;4977458;28;20089;-64
2020/12/03 06:41:01;;;;;;;48.83;26.57;;;;;;;-0.93;84.63;98265.09;4975976;28;20095;-62
2020/12/03 06:43:38;;;;;;;50.63;28.67;;;;;;;-0.81;84.66;98259.47;4980228;28;20053;-66
2020/12/03 06:46:41;;;;;;;51.07;29.97;;;;;;;-0.84;84.74;98265.28;4959864;28;20038;-64
2020/12/03 06:49:24;;;;;;;58.97;28.97;;;;;;;-0.81;84.73;98269.53;4980920;28;20050;-64
2020/12/03 06:52:05;;;;;;;56.03;29.30;;;;;;;-0.86;84.56;98266.09;4974462;28;20087;-63
2020/12/03 06:54:58;;;;;;;48.23;28.23;;;;;;;-0.72;84.37;98262.19;4972371;28;20041;-64
2020/12/03 06:58:08;;;;;;;52.23;28.53;;;;;;;-0.69;84.22;98257.19;4972560;28;20102;-62
2020/12/03 07:01:27;;;;;;;48.23;29.33;;;;;;;-0.61;83.98;98258.19;4912602;29;20168;-62
2020/12/03 07:04:30;;;;;;;54.10;30.83;;;;;;;-0.63;83.97;98242.19;4842364;29;20045;-62
2020/12/03 07:07:20;;;;;;;53.73;30.50;;;;;;;-0.59;84.27;98247.31;4839842;29;20041;-63
2020/12/03 07:10:09;;;;;;;61.20;32.50;;;;;;;-0.62;84.06;98233.81;4844455;29;20041;-61
2020/12/03 07:12:57;;;;;;;46.40;27.93;;;;;;;-0.57;83.88;98238.13;4846968;29;20045;-62
2020/12/03 07:15:47;;;;;;;53.87;29.63;;;;;;;-0.55;83.63;98251.59;4842745;29;20029;-62
2020/12/03 07:18:48;;;;;;;52.57;28.87;;;;;;;-0.61;83.56;98259.03;4843660;29;20532;-64
2020/12/03 07:21:36;;;;;;;52.83;30.13;;;;;;;-0.59;84.06;98254.00;4849162;29;20538;-64
2020/12/03 07:24:08;;;;;;;49.73;28.97;;;;;;;-0.56;83.59;98251.56;4845847;29;20468;-64
2020/12/03 07:27:04;;;;;;;55.13;27.77;;;;;;;-0.52;83.89;98258.38;4846917;29;20051;-62
2020/12/03 07:29:52;;;;;;;46.07;28.37;;;;;;;-0.47;83.43;98256.78;4849249;29;20486;-64
2020/12/03 07:32:41;;;;;;;47.47;29.93;;;;;;;-0.47;83.27;98242.50;4834702;29;20054;-63
2020/12/03 07:35:51;;;;;;;49.23;29.00;;;;;;;-0.44;83.17;98243.38;4836455;29;20383;-64
2020/12/03 07:38:33;;;;;;;45.00;26.73;;;;;;;-0.50;83.33;98244.13;4858782;29;20066;-64
2020/12/03 07:40:59;;;;;;;46.13;25.67;;;;;;;-0.44;83.36;98239.22;4888624;29;20529;-64
2020/12/03 07:43:32;;;;;;;44.77;25.50;;;;;;;-0.32;82.89;98243.59;4890697;29;20044;-64
2020/12/03 07:45:58;;;;;;;45.57;27.13;;;;;;;-0.32;82.65;98249.50;4895382;29;20466;-64
2020/12/03 07:48:32;;;;;;;53.07;28.60;;;;;;;-0.18;82.58;98247.22;4897659;29;20053;-64
2020/12/03 07:51:16;;;;;;;47.53;28.13;;;;;;;-0.24;82.32;98231.97;4897470;29;20064;-64
2020/12/03 07:53:41;;;;;;;49.17;26.90;;;;;;;-0.28;82.54;98243.69;4881479;29;20116;-65
2020/12/03 07:56:25;;;;;;;46.23;27.43;;;;;;;-0.17;82.67;98251.44;4899341;29;20156;-64
2020/12/03 07:58:51;;;;;;;59.10;30.57;;;;;;;-0.16;82.09;98259.00;4896690;29;20036;-64
2020/12/03 08:01:25;;;;;;;52.10;27.43;;;;;;;-0.09;81.97;98258.31;4899644;29;20062;-64
2020/12/03 08:03:51;;;;;;;46.90;26.00;;;;;;;-0.07;81.95;98246.56;4897282;29;20036;-64
2020/12/03 08:06:19;;;;;;;50.33;28.63;;;;;;;-0.03;81.54;98250.81;4891516;29;20469;-64
2020/12/03 08:09:00;;;;;;;44.83;27.20;;;;;;;0.02;80.83;98247.53;4898315;29;20489;-64
2020/12/03 08:11:49;;;;;;;45.90;25.90;;;;;;;0.09;81.36;98246.78;4896096;29;20099;-64
2020/12/03 08:14:36;;;;;;;44.23;25.10;;;;;;;0.14;81.32;98243.53;4893081;28;20107;-63
2020/12/03 08:17:05;;;;;;;46.03;26.13;;;;;;;0.23;80.81;98251.25;4974354;28;20117;-61
2020/12/03 08:19:37;;;;;;;43.40;25.63;;;;;;;0.29;80.51;98247.97;4973512;28;20034;-62
2020/12/03 08:22:04;;;;;;;45.67;26.43;;;;;;;0.27;80.35;98254.66;4971331;28;20397;-62
2020/12/03 08:24:33;;;;;;;42.30;26.30;;;;;;;0.31;79.85;98247.16;4971776;28;20031;-62
2020/12/03 08:27:02;;;;;;;43.93;26.13;;;;;;;0.34;80.37;98256.47;4972740;28;20026;-63
2020/12/03 08:29:36;;;;;;;45.63;25.20;;;;;;;0.45;79.79;98252.41;4973700;28;20061;-62
2020/12/03 08:32:01;;;;;;;41.95;25.85;;;;;;;0.35;79.42;98253.94;4975546;28;20069;-62
2020/12/03 08:34:41;;;;;;;44.77;26.10;;;;;;;0.34;79.71;98257.28;4974784;28;20063;-63
2020/12/03 08:37:14;;;;;;;43.17;25.90;;;;;;;0.36;79.68;98252.28;4972376;28;20078;-61
2020/12/03 08:39:42;;;;;;;44.77;24.70;;;;;;;0.44;79.22;98251.56;4974133;28;20022;-63
2020/12/03 08:42:10;;;;;;;49.60;28.73;;;;;;;0.52;79.06;98249.16;4974414;28;20106;-63
2020/12/03 08:44:36;;;;;;;54.63;26.70;;;;;;;0.53;79.03;98239.91;4974088;28;20015;-63
2020/12/03 08:47:10;;;;;;;38.57;23.73;;;;;;;0.50;79.02;98230.63;4974270;28;20122;-63
2020/12/03 08:49:44;;;;;;;43.67;26.00;;;;;;;0.46;78.96;98246.56;4972948;28;20488;-63
2020/12/03 08:52:10;;;;;;;46.50;25.60;;;;;;;0.46;78.81;98249.06;4974324;28;20397;-62
2020/12/03 08:54:36;;;;;;;43.03;26.80;;;;;;;0.47;78.85;98256.66;4972733;28;20102;-63
2020/12/03 08:57:14;;;;;;;42.23;22.67;;;;;;;0.57;78.76;98252.59;4973790;28;20023;-60
2020/12/03 08:59:48;;;;;;;37.87;22.90;;;;;;;0.67;78.36;98251.03;4975940;28;20031;-60
2020/12/03 09:02:19;;;;;;;44.30;25.55;;;;;;;0.73;77.85;98235.97;4975376;28;20518;-61
2020/12/03 09:04:49;;;;;;;41.40;24.60;;;;;;;0.77;77.67;98237.72;4974685;28;20031;-61
2020/12/03 09:07:17;;;;;;;42.37;25.93;;;;;;;0.82;77.43;98242.00;4977255;28;20031;-61
2020/12/03 09:09:45;;;;;;;42.33;24.07;;;;;;;0.82;77.56;98247.03;4975575;28;20030;-62
2020/12/03 09:12:19;;;;;;;40.80;22.73;;;;;;;0.74;77.82;98240.19;4975127;28;20504;-61
2020/12/03 09:14:48;;;;;;;35.37;21.57;;;;;;;0.79;77.73;98236.94;4976037;28;20070;-61
2020/12/03 09:17:18;;;;;;;38.43;22.43;;;;;;;0.82;77.61;98234.44;4975036;28;20100;-61
2020/12/03 09:19:44;;;;;;;44.87;27.10;;;;;;;0.70;77.35;98239.31;4971008;28;20038;-62
2020/12/03 09:22:12;;;;;;;46.60;25.00;;;;;;;0.80;77.49;98247.88;4974873;28;20408;-60
2020/12/03 09:24:39;;;;;;;42.70;24.83;;;;;;;0.72;76.93;98244.41;4975293;28;20372;-60
2020/12/03 09:27:08;;;;;;;43.93;25.20;;;;;;;0.85;77.53;98231.09;4974613;28;20035;-60
2020/12/03 09:29:34;;;;;;;39.67;22.77;;;;;;;0.89;77.44;98221.06;4973794;28;20467;-62
2020/12/03 09:32:04;;;;;;;38.47;22.90;;;;;;;0.93;77.07;98229.53;4974083;28;20031;-61
2020/12/03 09:34:33;;;;;;;35.70;22.97;;;;;;;1.02;76.05;98223.75;4974922;28;20100;-61
2020/12/03 09:37:01;;;;;;;36.63;22.60;;;;;;;1.11;75.19;98214.59;4974006;28;20030;-61
2020/12/03 09:39:34;;;;;;;37.93;23.53;;;;;;;1.07;75.68;98222.94;4975189;28;20034;-60
2020/12/03 09:42:02;;;;;;;40.20;23.73;;;;;;;0.99;75.50;98222.03;4970398;28;20444;-60
2020/12/03 09:44:31;;;;;;;37.40;23.33;;;;;;;1.01;75.99;98217.00;4974747;28;20031;-61
2020/12/03 09:47:01;;;;;;;42.30;24.77;;;;;;;0.96;76.95;98208.53;4975962;28;20421;-60
2020/12/03 09:49:28;;;;;;;39.97;24.70;;;;;;;0.84;77.08;98206.72;4974792;28;20038;-60
2020/12/03 09:51:54;;;;;;;40.10;23.43;;;;;;;0.89;77.55;98208.44;4973791;28;20038;-61
2020/12/03 09:54:20;;;;;;;46.07;24.00;;;;;;;0.97;77.18;98200.97;4974542;28;20110;-60
2020/12/03 09:56:46;;;;;;;48.60;28.00;;;;;;;1.14;76.89;98191.94;4973487;28;20434;-61
2020/12/03 09:59:13;;;;;;;39.80;22.83;;;;;;;0.50;77.72;98191.97;4973080;28;20042;-61
2020/12/03 10:02:02;;;;;;;53.27;30.67;;;;;;;0.80;77.55;98177.22;4977420;28;20037;-63
2020/12/03 10:04:52;;;;;;;50.17;31.17;;;;;;;0.95;77.25;98182.44;4972125;28;20058;-62
2020/12/03 10:08:02;;;;;;;45.27;24.67;;;;;;;0.87;76.43;98184.03;4974556;28;20026;-63
2020/12/03 10:10:42;;;;;;;41.60;26.07;;;;;;;0.92;76.85;98179.88;4879481;29;20344;-62
2020/12/03 10:13:45;;;;;;;44.67;25.03;;;;;;;1.03;77.13;98172.44;4883955;29;20044;-63
2020/12/03 10:16:21;;;;;;;42.67;23.33;;;;;;;1.03;76.83;98170.75;4877824;29;20159;-62
2020/12/03 10:18:49;;;;;;;41.10;24.30;;;;;;;1.07;76.28;98156.47;4874655;29;20036;-62
2020/12/03 10:21:21;;;;;;;47.73;26.57;;;;;;;1.12;76.60;98154.84;4876903;29;20467;-63
2020/12/03 10:24:19;;;;;;;39.33;24.17;;;;;;;1.42;75.72;98145.06;4876267;29;20123;-63
2020/12/03 10:26:47;;;;;;;41.27;24.27;;;;;;;1.53;75.50;98130.03;4878270;29;20134;-63
2020/12/03 10:29:30;;;;;;;39.93;24.67;;;;;;;1.59;74.22;98128.38;4877980;29;20466;-62
2020/12/03 10:31:58;;;;;;;43.00;24.70;;;;;;;1.53;74.99;98123.25;4873335;29;20032;-62
2020/12/03 10:34:25;;;;;;;36.47;22.93;;;;;;;1.64;74.53;98119.16;4875929;29;20124;-62
2020/12/03 10:36:56;;;;;;;41.07;22.57;;;;;;;1.75;74.30;98130.19;4878067;29;20076;-62
2020/12/03 10:39:32;;;;;;;38.73;23.53;;;;;;;1.89;74.52;98122.72;4881432;29;20040;-62
2020/12/03 10:42:00;;;;;;;40.57;24.67;;;;;;;1.95;73.77;98132.88;4944546;28;20124;-63
2020/12/03 10:44:27;;;;;;;37.83;23.87;;;;;;;2.00;73.75;98135.41;4973448;28;20089;-62
2020/12/03 10:47:04;;;;;;;34.43;23.13;;;;;;;1.74;73.86;98140.31;4974927;28;20518;-62
2020/12/03 10:49:35;;;;;;;39.80;23.90;;;;;;;1.67;75.16;98133.47;4958095;28;20053;-63
2020/12/03 10:52:02;;;;;;;41.87;24.77;;;;;;;1.67;75.17;98130.97;4975413;28;20045;-62
2020/12/03 10:54:32;;;;;;;43.60;22.87;;;;;;;1.62;75.12;98125.88;4975410;28;20018;-63
2020/12/03 10:57:04;;;;;;;40.50;23.73;;;;;;;1.64;74.88;98129.28;4973761;28;20475;-65
2020/12/03 10:59:38;;;;;;;42.03;24.03;;;;;;;1.64;75.41;98125.88;4981136;28;20037;-63
2020/12/03 11:02:14;;;;;;;36.30;22.23;;;;;;;1.56;75.11;98108.16;4970129;28;20110;-62
2020/12/03 11:04:40;;;;;;;40.03;23.37;;;;;;;1.62;75.44;98122.50;4976653;28;20018;-64
2020/12/03 11:07:12;;;;;;;42.03;24.07;;;;;;;1.55;75.84;98113.19;4978477;28;20081;-62
2020/12/03 11:09:39;;;;;;;38.47;23.10;;;;;;;1.55;75.66;98103.94;4976352;28;20023;-65
2020/12/03 11:12:09;;;;;;;43.53;24.03;;;;;;;1.59;75.37;98103.13;4981657;28;20122;-63
2020/12/03 11:14:35;;;;;;;44.47;25.63;;;;;;;1.53;75.71;98090.44;4981665;28;20038;-63
2020/12/03 11:17:23;;;;;;;39.60;25.53;;;;;;;1.67;75.70;98093.91;4967669;28;20510;-63
2020/12/03 11:19:57;;;;;;;43.27;24.97;;;;;;;1.75;75.06;98104.06;4977234;28;20038;-63
2020/12/03 11:22:41;;;;;;;42.37;24.00;;;;;;;1.85;74.17;98093.19;4982852;28;20029;-64
2020/12/03 11:25:08;;;;;;;41.07;23.87;;;;;;;1.81;74.58;98099.91;4979020;28;20034;-64
2020/12/03 11:27:37;;;;;;;42.53;23.97;;;;;;;1.86;73.76;98097.44;4980473;28;20027;-65
2020/12/03 11:30:18;;;;;;;39.30;23.70;;;;;;;2.00;73.70;98095.81;4980897;28;20045;-63
2020/12/03 11:32:48;;;;;;;42.53;22.30;;;;;;;1.93;74.17;98083.97;4975371;28;20089;-64
2020/12/03 11:35:24;;;;;;;72.63;37.90;;;;;;;1.80;74.59;98089.78;4975214;28;20030;-63
2020/12/03 11:37:56;;;;;;;;;;;;;;;1.67;74.55;98093.06;4979967;28;20034;-63
2020/12/03 11:40:57;;;;;;;63.70;29.37;;;;;;;1.58;75.57;98085.41;4980111;28;19913;-64
2020/12/03 11:48:42;;;;;;;50.47;27.50;;;;;;;1.37;76.53;98070.94;4940950;29;20039;-64